Time;durP1;ratioP1;P1;durP2;ratioP2;P2;SDS_P1;SDS_P2;PMS_P1;PMS_P2;Temp;Humidity;BMP_temperature;BMP_pressure;BME280_temperature;BME280_humidity;BME280_pressure;Samples;Min_cycle;Max_cycle;Signal;HPM_P1;HPM_P2
2023/06/03 00:00:13;;;;;;;;;;;;;;;;;;;;;
2023/06/03 00:02:49;;;;;;;;;9.00;9.00;;;;;;;;6395539;22;45261;-91
2023/06/03 00:18:11;;;;;;;;;;;;;;;;;;;;;
2023/06/03 00:24:23;;;;;;;;;;;;;;;;;;;;;
2023/06/03 00:30:24;;;;;;;;;11.25;10.00;;;;;;;;6219279;22;46158;-90
2023/06/03 00:33:28;;;;;;;;;;;;;;;;;;;;;
2023/06/03 00:36:29;;;;;;;;;8.00;8.00;;;;;;;;4852198;22;23693523;-90
2023/06/03 00:49:31;;;;;;;;;;;;;;;;;;;;;
2023/06/03 01:04:35;;;;;;;;;;;;;;;;;;;;;
2023/06/03 01:10:03;;;;;;;;;;;;;;;;;;;;;
2023/06/03 01:13:11;;;;;;;;;;;;;;;;;;;;;
2023/06/03 01:16:00;;;;;;;;;15.60;15.60;;;;;;;;5997616;23;1923806;-91
2023/06/03 01:18:58;;;;;;;;;;;;;;;;;;;;;
2023/06/03 01:22:28;;;;;;;;;;;;;;;;;;;;;
2023/06/03 01:30:50;;;;;;;;;15.25;15.25;;;;;;;;6182211;22;45275;-91
2023/06/03 01:36:35;;;;;;;;;;;;;;;;;;;;;
2023/06/03 01:39:31;;;;;;;;;16.50;14.50;;;;;;;;6123990;23;73870;-91
2023/06/03 01:42:25;;;;;;;;;16.25;16.25;;;;;;;;6193928;22;45525;-90
2023/06/03 01:44:59;;;;;;;;;15.50;15.50;;;;;;;;6118901;22;1090167;-90
2023/06/03 01:47:53;;;;;;;;;17.25;16.00;;;;;;;;6338223;22;45429;-90
2023/06/03 01:50:57;;;;;;;;;;;;;;;;;;;;;
2023/06/03 01:56:49;;;;;;;;;14.25;14.25;;;;;;;;6391556;22;48346;-90
2023/06/03 01:59:23;;;;;;;;;19.50;17.00;;;;;;;;6395695;22;566830;-91
2023/06/03 02:02:01;;;;;;;;;;;;;;;;;;;;;
2023/06/03 02:05:01;;;;;;;;;;;;;;;;;;;;;
2023/06/03 02:10:09;;;;;;;;;15.33;15.33;;;;;;;;4253870;22;22422422;-90
2023/06/03 02:13:05;;;;;;;;;;;;;;;;;;;;;
2023/06/03 02:15:42;;;;;;;;;21.50;21.50;;;;;;;;6407086;22;74308;-90
2023/06/03 02:21:49;;;;;;;;;;;;;;;;;;;;;
2023/06/03 02:24:55;;;;;;;;;19.00;19.00;;;;;;;;6419550;22;54367;-93
2023/06/03 02:27:24;;;;;;;;;21.50;21.00;;;;;;;;6386114;22;45409;-92
2023/06/03 02:30:11;;;;;;;;;;;;;;;;;;;;;
2023/06/03 02:33:16;;;;;;;;;;;;;;;;;;;;;
2023/06/03 02:36:06;;;;;;;;;;;;;;;;;;;;;
2023/06/03 02:38:57;;;;;;;;;22.75;22.75;;;;;;;;6424843;22;57888;-92
2023/06/03 02:41:52;;;;;;;;;25.50;24.25;;;;;;;;6396276;22;28600;-92
2023/06/03 02:44:32;;;;;;;;;;;;;;;;;;;;;
2023/06/03 02:47:10;;;;;;;;;;;;;;;;;;;;;
2023/06/03 02:49:49;;;;;;;;;22.75;22.75;;;;;;;;6406829;22;58058;-92
2023/06/03 02:52:23;;;;;;;;;24.00;23.00;;;;;;;;6406665;22;45370;-92
2023/06/03 02:55:09;;;;;;;;;;;;;;;;;;;;;
2023/06/03 03:01:28;;;;;;;;;26.00;26.00;;;;;;;;6346198;22;28468;-92
2023/06/03 03:04:08;;;;;;;;;18.75;18.75;;;;;;;;6386577;22;28789;-92
2023/06/03 03:06:47;;;;;;;;;27.25;26.00;;;;;;;;6363442;22;44537;-92
2023/06/03 03:09:39;;;;;;;;;;;;;;;;;;;;;
2023/06/03 03:12:17;;;;;;;;;;;;;;;;;;;;;
2023/06/03 03:15:13;;;;;;;;;25.25;25.25;;;;;;;;6391868;22;57979;-93
2023/06/03 03:17:55;;;;;;;;;20.75;20.75;;;;;;;;6389665;22;28320;-92
2023/06/03 03:20:31;;;;;;;;;;;;;;;;;;;;;
2023/06/03 03:23:28;;;;;;;;;26.25;26.25;;;;;;;;6373595;22;75087;-93
2023/06/03 03:26:34;;;;;;;;;;;;;;;;;;;;;
2023/06/03 03:29:33;;;;;;;;;;;;;;;;;;;;;
2023/06/03 03:32:37;;;;;;;;;;;;;;;;;;;;;
2023/06/03 03:35:17;;;;;;;;;28.50;27.75;;;;;;;;6387350;22;75232;-92
2023/06/03 03:38:14;;;;;;;;;33.25;31.50;;;;;;;;6356369;22;44841;-92
2023/06/03 03:40:57;;;;;;;;;30.25;29.75;;;;;;;;6371555;22;45330;-92
2023/06/03 03:43:42;;;;;;;;;27.50;26.25;;;;;;;;6353321;22;46435;-92
2023/06/03 03:49:50;;;;;;;;;33.25;31.00;;;;;;;;6307393;22;44790;-92
2023/06/03 03:52:47;;;;;;;;;;;;;;;;;;;;;
2023/06/03 03:55:32;;;;;;;;;29.25;29.25;;;;;;;;6392539;22;51968;-92
2023/06/03 03:58:02;;;;;;;;;26.75;26.75;;;;;;;;6381406;22;45492;-92
2023/06/03 04:00:51;;;;;;;;;29.25;28.00;;;;;;;;6386266;22;45410;-92
2023/06/03 04:03:55;;;;;;;;;;;;;;;;;;;;;
2023/06/03 04:10:13;;;;;;;;;;;;;;;;;;;;;
2023/06/03 04:12:51;;;;;;;;;;;;;;;;;;;;;
2023/06/03 04:18:44;;;;;;;;;;;;;;;;;;;;;
2023/06/03 04:21:29;;;;;;;;;;;;;;;;;;;;;
2023/06/03 04:24:29;;;;;;;;;29.50;29.50;;;;;;;;6363722;22;72691;-92
2023/06/03 04:27:15;;;;;;;;;30.75;30.00;;;;;;;;6373187;22;45197;-92
2023/06/03 04:30:14;;;;;;;;;;;;;;;;;;;;;
2023/06/03 04:33:00;;;;;;;;;;;;;;;;;;;;;
2023/06/03 04:35:51;;;;;;;;;27.75;27.75;;;;;;;;6379978;22;56440;-92
2023/06/03 04:38:45;;;;;;;;;26.25;24.75;;;;;;;;6350919;22;45235;-93
2023/06/03 04:41:21;;;;;;;;;;;;;;;;;;;;;
2023/06/03 04:44:13;;;;;;;;;25.00;25.00;;;;;;;;6383671;22;57951;-92
2023/06/03 04:52:52;;;;;;;;;26.75;26.75;;;;;;;;6374220;22;45313;-92
2023/06/03 04:55:43;;;;;;;;;;;;;;;;;;;;;
2023/06/03 04:58:09;;;;;;;;;23.75;23.25;;;;;;;;6378444;22;72944;-92
2023/06/03 05:01:01;;;;;;;;;;;;;;;;;;;;;
2023/06/03 05:06:36;;;;;;;;;20.00;20.00;;;;;;;;6351221;22;46722;-92
2023/06/03 05:09:20;;;;;;;;;21.75;21.00;;;;;;;;6346169;22;45309;-92
2023/06/03 05:12:08;;;;;;;;;20.25;20.25;;;;;;;;6376633;22;45201;-92
2023/06/03 05:14:36;;;;;;;;;21.67;20.67;;;;;;;;6345802;22;45415;-92
2023/06/03 05:17:22;;;;;;;;;;;;;;;;;;;;;
2023/06/03 05:20:03;;;;;;;;;;;;;;;;;;;;;
2023/06/03 05:22:31;;;;;;;;;17.33;17.33;;;;;;;;6372735;22;68652;-92
2023/06/03 05:25:27;;;;;;;;;;;;;;;;;;;;;
2023/06/03 05:28:05;;;;;;;;;;;;;;;;;;;;;
2023/06/03 05:31:01;;;;;;;;;;;;;;;;;;;;;
2023/06/03 05:33:28;;;;;;;;;21.67;21.67;;;;;;;;6372679;22;67216;-93
2023/06/03 05:36:14;;;;;;;;;17.00;14.33;;;;;;;;6345500;22;45384;-92
2023/06/03 05:41:41;;;;;;;;;12.67;12.67;;;;;;;;6360949;22;45386;-93
2023/06/03 05:44:38;;;;;;;;;15.67;13.67;;;;;;;;6374372;22;45194;-92
2023/06/03 05:47:44;;;;;;;;;16.33;16.33;;;;;;;;6296114;22;45388;-92
2023/06/03 05:50:09;;;;;;;;;14.67;14.67;;;;;;;;6323592;22;45319;-90
2023/06/03 05:52:34;;;;;;;;;13.67;12.33;;;;;;;;6373720;22;45302;-89
2023/06/03 05:54:59;;;;;;;;;16.33;16.00;;;;;;;;6376492;22;45333;-90
2023/06/03 05:57:25;;;;;;;;;11.33;11.33;;;;;;;;6359418;22;44688;-90
2023/06/03 05:59:51;;;;;;;;;16.00;13.67;;;;;;;;6375165;22;46282;-90
2023/06/03 06:02:20;;;;;;;;;15.67;13.00;;;;;;;;6379970;22;45273;-94
2023/06/03 06:04:58;;;;;;;;;;;;;;;;;;;;;
2023/06/03 06:10:29;;;;;;;;;14.67;14.67;;;;;;;;6363926;22;44638;-90
2023/06/03 06:12:55;;;;;;;;;12.00;12.00;;;;;;;;6344761;22;45400;-90
2023/06/03 06:15:20;;;;;;;;;13.33;12.33;;;;;;;;6345991;22;45194;-90
2023/06/03 06:17:45;;;;;;;;;13.67;9.67;;;;;;;;6374906;22;45377;-91
2023/06/03 06:20:11;;;;;;;;;17.00;17.00;;;;;;;;6373593;22;46191;-90
2023/06/03 06:22:36;;;;;;;;;10.00;10.00;;;;;;;;6373408;22;45355;-90
2023/06/03 06:25:08;;;;;;;;;14.33;14.33;;;;;;;;6345209;22;45265;-90
2023/06/03 06:27:33;;;;;;;;;8.33;8.33;;;;;;;;6375294;22;45178;-91
2023/06/03 06:29:59;;;;;;;;;11.33;11.33;;;;;;;;6372956;22;46311;-91
2023/06/03 06:32:25;;;;;;;;;12.00;12.00;;;;;;;;6374026;22;45277;-91
2023/06/03 06:34:50;;;;;;;;;12.67;12.67;;;;;;;;6374041;22;45424;-91
2023/06/03 06:37:17;;;;;;;;;12.33;12.33;;;;;;;;6376397;22;45167;-91
2023/06/03 06:39:43;;;;;;;;;12.00;12.00;;;;;;;;6385410;22;45431;-91
2023/06/03 06:42:12;;;;;;;;;15.00;15.00;;;;;;;;6350291;22;45281;-91
2023/06/03 06:44:44;;;;;;;;;8.67;8.67;;;;;;;;6378814;22;45308;-90
2023/06/03 06:47:10;;;;;;;;;11.33;11.33;;;;;;;;6374519;22;45092;-91
2023/06/03 06:49:36;;;;;;;;;10.67;10.67;;;;;;;;6375665;22;46361;-91
2023/06/03 06:52:01;;;;;;;;;11.33;11.33;;;;;;;;6387462;22;45172;-91
2023/06/03 06:54:26;;;;;;;;;9.67;9.67;;;;;;;;6362848;22;44537;-91
2023/06/03 06:56:52;;;;;;;;;11.00;11.00;;;;;;;;6379216;22;45101;-90
2023/06/03 06:59:17;;;;;;;;;14.33;14.33;;;;;;;;6391054;22;44514;-90
2023/06/03 07:01:42;;;;;;;;;8.33;8.33;;;;;;;;6384826;22;45175;-90
2023/06/03 07:04:07;;;;;;;;;10.67;10.67;;;;;;;;6390634;22;44615;-91
2023/06/03 07:06:32;;;;;;;;;9.33;9.33;;;;;;;;6379750;22;45266;-90
2023/06/03 07:08:58;;;;;;;;;9.67;9.67;;;;;;;;6375079;22;45276;-91
2023/06/03 07:11:23;;;;;;;;;12.00;12.00;;;;;;;;6375045;22;45448;-91
2023/06/03 07:13:50;;;;;;;;;9.33;9.33;;;;;;;;6344301;22;45446;-91
2023/06/03 07:16:15;;;;;;;;;10.67;10.67;;;;;;;;6374272;22;45296;-91
2023/06/03 07:18:40;;;;;;;;;10.67;10.67;;;;;;;;6371865;22;47843;-90
2023/06/03 07:21:06;;;;;;;;;10.33;9.67;;;;;;;;6374922;22;45261;-91
2023/06/03 07:23:32;;;;;;;;;9.67;9.67;;;;;;;;6375191;22;45351;-91
2023/06/03 07:25:57;;;;;;;;;10.67;10.67;;;;;;;;6368009;22;45333;-90
2023/06/03 07:28:28;;;;;;;;;13.67;13.67;;;;;;;;6366454;22;46128;-90
2023/06/03 07:30:54;;;;;;;;;8.33;8.33;;;;;;;;6369520;22;45755;-90
2023/06/03 07:33:27;;;;;;;;;6.67;6.67;;;;;;;;6370718;22;45492;-90
2023/06/03 07:35:56;;;;;;;;;9.33;9.33;;;;;;;;6373604;22;45461;-90
